Time;durP1;ratioP1;P1;durP2;ratioP2;P2;SDS_P1;SDS_P2;PMS_P1;PMS_P2;Temp;Humidity;BMP_temperature;BMP_pressure;BME280_temperature;BME280_humidity;BME280_pressure;Samples;Min_cycle;Max_cycle;Signal;HPM_P1;HPM_P2
2021/12/21 00:00:22;;;;;;;11.02;7.00;;;;;;;9.89;75.66;101403.13;5069609;28;20086;-69
2021/12/21 00:02:53;;;;;;;8.18;3.72;;;;;;;9.92;75.91;101400.56;5068191;28;20173;-69
2021/12/21 00:05:25;;;;;;;10.57;3.70;;;;;;;9.97;75.86;101405.13;5069535;28;20055;-69
2021/12/21 00:07:54;;;;;;;8.45;3.53;;;;;;;9.95;75.71;101401.56;5062459;28;20044;-69
2021/12/21 00:10:24;;;;;;;6.70;2.92;;;;;;;9.94;75.20;101405.03;5069003;28;20060;-69
2021/12/21 00:13:04;;;;;;;6.90;3.00;;;;;;;9.92;74.91;101400.56;5068234;28;20480;-69
2021/12/21 00:15:53;;;;;;;11.90;5.18;;;;;;;9.87;74.97;101403.06;5070624;28;20044;-69
2021/12/21 00:18:30;;;;;;;10.05;5.82;;;;;;;9.76;75.04;101408.88;5067492;28;20072;-70
2021/12/21 00:21:04;;;;;;;20.33;10.38;;;;;;;9.69;74.98;101401.66;5038333;28;20090;-69
2021/12/21 00:23:35;;;;;;;12.48;6.00;;;;;;;9.64;75.23;101401.53;5069532;28;20044;-69
2021/12/21 00:26:06;;;;;;;13.68;6.47;;;;;;;9.68;75.24;101403.38;5070902;28;20131;-69
2021/12/21 00:28:42;;;;;;;13.23;6.07;;;;;;;9.73;74.94;101398.25;5061908;28;20044;-69
2021/12/21 00:31:10;;;;;;;12.68;7.05;;;;;;;9.78;74.93;101400.16;5070008;28;20029;-69
2021/12/21 00:33:40;;;;;;;20.15;10.93;;;;;;;9.83;74.71;101397.69;5062483;28;20544;-69
2021/12/21 00:36:08;;;;;;;16.45;14.48;;;;;;;9.87;74.41;101396.91;5055443;28;20044;-70
2021/12/21 00:38:36;;;;;;;12.73;9.35;;;;;;;9.87;74.35;101394.25;5032400;28;20067;-69
2021/12/21 00:41:04;;;;;;;12.90;5.35;;;;;;;9.82;74.38;101395.88;5034506;28;20489;-69
2021/12/21 00:43:33;;;;;;;12.55;5.80;;;;;;;9.82;74.36;101390.59;5033946;28;21384;-69
2021/12/21 00:46:02;;;;;;;10.65;6.47;;;;;;;9.82;74.34;101390.59;5065589;28;20132;-69
2021/12/21 00:48:31;;;;;;;10.15;4.78;;;;;;;9.79;74.38;101395.78;5049030;28;20041;-70
2021/12/21 00:51:02;;;;;;;15.63;9.65;;;;;;;9.75;74.20;101386.00;5049845;28;20041;-69
2021/12/21 00:53:30;;;;;;;27.10;18.65;;;;;;;9.47;74.47;101386.94;5039223;28;20071;-69
2021/12/21 00:55:58;;;;;;;12.30;7.10;;;;;;;9.40;74.86;101377.94;5037275;28;20572;-69
2021/12/21 00:58:25;;;;;;;10.52;6.78;;;;;;;9.43;74.92;101391.22;5047823;28;20067;-69
2021/12/21 01:00:53;;;;;;;23.63;11.50;;;;;;;9.36;74.93;101393.63;5044245;28;20040;-70
2021/12/21 01:03:22;;;;;;;20.25;9.60;;;;;;;9.42;75.06;101385.91;5049147;28;20037;-70
2021/12/21 01:05:56;;;;;;;9.68;4.90;;;;;;;9.46;74.64;101393.94;5048773;28;20033;-70
2021/12/21 01:08:28;;;;;;;36.30;16.98;;;;;;;9.46;74.24;101393.03;5043324;28;20427;-70
2021/12/21 01:13:57;;;;;;;6.47;3.88;;;;;;;9.32;74.66;101397.88;5068353;28;20037;-69
2021/12/21 01:16:33;;;;;;;10.77;4.50;;;;;;;9.27;74.57;101396.88;5067932;28;20433;-70
2021/12/21 01:19:19;;;;;;;9.48;4.13;;;;;;;9.31;74.75;101398.78;5066189;28;20119;-70
2021/12/21 01:22:00;;;;;;;8.70;4.00;;;;;;;9.26;74.68;101402.97;5068766;28;20519;-70
2021/12/21 01:24:53;;;;;;;8.95;3.20;;;;;;;9.28;75.10;101406.56;5068933;28;20382;-70
2021/12/21 01:27:31;;;;;;;6.15;2.90;;;;;;;9.40;75.23;101409.56;5044755;28;20037;-70
2021/12/21 01:30:07;;;;;;;8.85;2.60;;;;;;;9.49;75.00;101396.69;5048252;28;20128;-70
2021/12/21 01:32:53;;;;;;;6.32;2.25;;;;;;;9.52;74.72;101393.22;5049580;28;20048;-70
2021/12/21 01:35:29;;;;;;;7.78;2.42;;;;;;;9.55;74.55;101391.59;5035594;28;20488;-70
2021/12/21 01:38:02;;;;;;;10.00;2.53;;;;;;;9.53;74.48;101393.28;5045859;28;20059;-70
2021/12/21 01:40:48;;;;;;;7.35;3.45;;;;;;;9.53;74.44;101389.75;5048976;28;20120;-70
2021/12/21 01:43:26;;;;;;;7.57;2.70;;;;;;;9.47;74.07;101390.47;5035059;28;20102;-70
2021/12/21 01:51:25;;;;;;;7.95;2.67;;;;;;;9.45;74.42;101378.97;5044302;28;20045;-70
2021/12/21 01:53:54;;;;;;;7.45;2.75;;;;;;;9.42;74.47;101378.91;5052111;28;20503;-70
2021/12/21 01:56:23;;;;;;;10.00;3.00;;;;;;;9.46;74.27;101379.88;5047476;28;20045;-70
2021/12/21 01:58:51;;;;;;;9.25;2.40;;;;;;;9.49;74.18;101378.25;5047275;28;20048;-70
2021/12/21 02:01:21;;;;;;;8.50;2.03;;;;;;;9.53;74.35;101374.84;5055120;28;20064;-71
2021/12/21 02:03:49;;;;;;;10.48;2.30;;;;;;;9.57;74.09;101376.72;5047643;28;20103;-70
2021/12/21 02:06:19;;;;;;;6.07;2.42;;;;;;;9.58;74.05;101381.13;5048672;28;20564;-70
2021/12/21 02:08:50;;;;;;;11.38;2.85;;;;;;;9.57;74.11;101376.72;5066250;28;20064;-70
2021/12/21 02:11:19;;;;;;;5.25;2.40;;;;;;;9.52;74.11;101373.03;5063450;28;20097;-70
2021/12/21 02:13:48;;;;;;;5.28;1.85;;;;;;;9.49;74.04;101369.44;5068537;28;20173;-70
2021/12/21 02:16:24;;;;;;;5.75;2.28;;;;;;;9.50;73.96;101371.22;5067318;28;20029;-70
2021/12/21 02:18:57;;;;;;;6.75;3.00;;;;;;;9.48;73.96;101367.66;5066599;28;20040;-70
2021/12/21 02:21:32;;;;;;;8.43;2.67;;;;;;;9.50;73.96;101372.13;5067035;28;20039;-69
2021/12/21 02:24:04;;;;;;;12.02;7.30;;;;;;;9.50;73.83;101371.22;5080260;28;20052;-69
2021/12/21 02:26:48;;;;;;;8.13;3.30;;;;;;;9.47;73.92;101377.28;5069464;28;20050;-69
2021/12/21 02:29:25;;;;;;;8.27;3.00;;;;;;;9.50;73.71;101373.88;5064980;28;20082;-70
2021/12/21 02:31:54;;;;;;;8.45;2.92;;;;;;;9.52;73.81;101372.13;5068072;28;20481;-69
2021/12/21 02:34:23;;;;;;;6.50;4.25;;;;;;;9.54;73.43;101371.34;5063471;28;20036;-70
2021/12/21 02:36:55;;;;;;;8.45;4.95;;;;;;;9.59;73.39;101367.09;5064132;28;20064;-69
2021/12/21 02:39:24;;;;;;;11.80;4.25;;;;;;;9.59;73.65;101369.72;5049776;28;20407;-70
2021/12/21 02:41:54;;;;;;;8.38;3.67;;;;;;;9.58;73.36;101360.03;5068121;28;20045;-70
2021/12/21 02:44:22;;;;;;;6.05;2.67;;;;;;;9.53;73.19;101364.28;5068086;28;20412;-70
2021/12/21 02:46:50;;;;;;;4.93;1.92;;;;;;;9.51;73.14;101363.38;5067747;28;20504;-70
2021/12/21 02:49:19;;;;;;;5.90;2.85;;;;;;;9.53;73.07;101364.28;5067439;28;20111;-70
2021/12/21 02:51:48;;;;;;;6.20;2.13;;;;;;;9.53;73.05;101366.03;5065303;28;20045;-70
2021/12/21 02:54:19;;;;;;;6.50;2.03;;;;;;;9.52;72.95;101367.78;5066396;28;20118;-70
2021/12/21 02:56:48;;;;;;;6.40;1.80;;;;;;;9.47;73.41;101366.75;5047069;28;20063;-70
2021/12/21 02:59:15;;;;;;;5.25;1.80;;;;;;;9.43;73.47;101367.50;5056747;28;20132;-71
2021/12/21 03:01:43;;;;;;;6.15;1.80;;;;;;;9.39;73.58;101370.00;5068187;28;20043;-70
2021/12/21 03:04:11;;;;;;;4.95;1.52;;;;;;;9.37;73.67;101369.06;5068115;28;20123;-69
2021/12/21 03:12:31;;;;;;;7.70;1.42;;;;;;;9.46;73.27;101371.97;5068467;28;20040;-70
2021/12/21 03:14:59;;;;;;;8.98;4.05;;;;;;;9.52;73.09;101377.41;5046987;28;20397;-70
2021/12/21 03:17:27;;;;;;;5.95;2.00;;;;;;;9.56;72.93;101379.31;5047061;28;20116;-70
2021/12/21 03:19:54;;;;;;;6.85;1.80;;;;;;;9.58;72.89;101375.00;5052690;28;20068;-70
2021/12/21 03:22:22;;;;;;;6.57;1.60;;;;;;;9.60;72.77;101374.16;5065742;28;20129;-70
2021/12/21 03:24:51;;;;;;;6.45;1.65;;;;;;;9.58;72.75;101372.34;5065763;28;20040;-70
2021/12/21 03:27:19;;;;;;;4.88;1.45;;;;;;;9.48;73.18;101371.19;5065411;28;20713;-70
2021/12/21 03:29:47;;;;;;;10.45;1.90;;;;;;;9.44;73.20;101381.59;5067786;28;20048;-70
2021/12/21 03:32:14;;;;;;;6.05;1.85;;;;;;;9.42;72.97;101381.53;5067942;28;20741;-73
2021/12/21 03:34:42;;;;;;;6.38;1.58;;;;;;;9.40;73.10;101384.97;5067283;28;20552;-69
2021/12/21 03:37:12;;;;;;;4.97;1.60;;;;;;;9.39;73.45;101391.97;5062322;28;20070;-69
2021/12/21 03:39:40;;;;;;;4.60;1.55;;;;;;;9.37;73.29;101393.69;5065348;28;20507;-70
2021/12/21 03:42:11;;;;;;;6.28;1.35;;;;;;;9.35;73.59;101384.81;5065647;28;20083;-69
2021/12/21 03:44:39;;;;;;;9.05;1.73;;;;;;;9.33;73.52;101397.03;5070543;28;20044;-69
2021/12/21 03:47:09;;;;;;;5.63;1.80;;;;;;;9.38;73.33;101406.00;5070535;28;20045;-70
2021/12/21 03:52:24;;;;;;;4.13;1.35;;;;;;;9.36;73.14;101412.06;5056581;28;20537;-70
2021/12/21 03:54:55;;;;;;;5.45;1.25;;;;;;;9.30;73.10;101410.16;5038463;28;20037;-70
2021/12/21 03:57:25;;;;;;;4.57;2.08;;;;;;;9.31;72.93;101416.31;5049793;28;20048;-70
2021/12/21 03:59:54;;;;;;;3.53;1.17;;;;;;;9.41;72.54;101413.09;5049613;28;20056;-70
2021/12/21 04:02:23;;;;;;;3.78;0.85;;;;;;;9.42;72.47;101406.97;5034684;28;20049;-70
2021/12/21 04:04:53;;;;;;;7.68;1.52;;;;;;;9.41;72.13;101415.72;5031496;28;20473;-70
2021/12/21 04:07:20;;;;;;;5.35;1.27;;;;;;;9.42;72.04;101418.41;5049166;28;20489;-70
2021/12/21 04:09:48;;;;;;;7.28;2.00;;;;;;;9.41;71.88;101419.25;5069788;28;20048;-70
2021/12/21 04:12:16;;;;;;;4.85;1.50;;;;;;;9.46;71.67;101425.56;5067243;28;20045;-70
2021/12/21 04:14:46;;;;;;;5.32;1.50;;;;;;;9.48;71.61;101426.50;5066664;28;20505;-70
2021/12/21 04:17:18;;;;;;;5.38;1.45;;;;;;;9.51;71.33;101429.25;5071008;28;20044;-70
2021/12/21 04:19:46;;;;;;;3.28;1.05;;;;;;;9.58;70.95;101438.25;5069481;28;20048;-71
2021/12/21 04:22:14;;;;;;;4.68;1.20;;;;;;;9.58;70.71;101440.88;5068124;28;20118;-69
2021/12/21 04:24:41;;;;;;;7.93;1.35;;;;;;;9.56;70.66;101438.19;5054949;28;20060;-70
2021/12/21 04:27:09;;;;;;;3.25;1.00;;;;;;;9.53;70.77;101427.53;5069369;28;20037;-70
2021/12/21 04:30:04;;;;;;;2.83;1.13;;;;;;;9.49;70.88;101422.13;5102640;27;20972;-71
2021/12/21 04:32:32;;;;;;;3.90;0.93;;;;;;;9.41;70.59;101429.81;5105938;28;20048;-71
2021/12/21 04:35:00;;;;;;;2.45;0.82;;;;;;;9.45;70.52;101420.28;5105484;28;20513;-71
2021/12/21 04:37:28;;;;;;;4.25;1.20;;;;;;;9.56;70.45;101432.03;5088600;28;20097;-71
2021/12/21 04:40:01;;;;;;;5.30;1.38;;;;;;;9.60;69.81;101432.16;5093745;27;20058;-71
2021/12/21 04:42:28;;;;;;;3.23;1.33;;;;;;;9.66;69.28;101436.72;5098922;28;20052;-70
2021/12/21 04:44:56;;;;;;;4.55;1.20;;;;;;;9.72;69.33;101442.16;5100217;28;20119;-71
2021/12/21 04:47:26;;;;;;;4.80;1.00;;;;;;;9.74;69.18;101447.50;5084417;28;20090;-71
2021/12/21 04:49:54;;;;;;;5.35;1.40;;;;;;;9.70;69.27;101446.50;5084413;28;20153;-71
2021/12/21 04:52:22;;;;;;;3.97;1.25;;;;;;;9.68;69.56;101449.94;5095206;28;20027;-71
2021/12/21 04:54:50;;;;;;;6.18;1.30;;;;;;;9.62;69.51;101453.28;5098532;28;20083;-70
2021/12/21 04:57:18;;;;;;;4.38;1.30;;;;;;;9.53;69.98;101439.81;5113407;27;20042;-71
2021/12/21 04:59:45;;;;;;;6.88;1.30;;;;;;;9.49;70.14;101445.84;5104577;27;20040;-71
2021/12/21 05:02:13;;;;;;;5.72;1.40;;;;;;;9.42;70.22;101452.69;5097729;28;20040;-71
2021/12/21 05:04:42;;;;;;;5.13;1.60;;;;;;;9.43;70.22;101457.09;5111292;28;20616;-70
2021/12/21 05:07:10;;;;;;;5.82;1.67;;;;;;;9.46;70.18;101459.81;5089483;28;20085;-71
2021/12/21 05:09:43;;;;;;;6.53;1.58;;;;;;;9.48;70.35;101454.59;5112857;27;20052;-70
2021/12/21 05:12:13;;;;;;;3.25;1.48;;;;;;;9.51;70.08;101463.53;5110434;27;20039;-70
2021/12/21 05:14:40;;;;;;;5.53;1.83;;;;;;;9.53;70.24;101447.72;5094149;28;20047;-71
2021/12/21 05:17:08;;;;;;;4.43;2.05;;;;;;;9.56;69.84;101458.38;5104134;28;20036;-70
2021/12/21 05:19:36;;;;;;;10.48;4.05;;;;;;;9.59;69.63;101464.63;5120434;28;20128;-71
2021/12/21 05:22:05;;;;;;;32.05;24.25;;;;;;;9.67;69.42;101463.97;5088088;28;20036;-71
2021/12/21 05:24:33;;;;;;;26.83;22.85;;;;;;;9.72;69.60;101467.63;5103226;28;20559;-70
2021/12/21 05:27:01;;;;;;;21.27;13.98;;;;;;;9.70;69.49;101470.25;5099663;28;20044;-70
2021/12/21 05:29:31;;;;;;;16.23;11.18;;;;;;;9.67;69.78;101469.25;5083932;28;20040;-71
2021/12/21 05:31:59;;;;;;;31.65;20.58;;;;;;;9.64;69.67;101472.69;5083838;28;20125;-70
2021/12/21 05:34:27;;;;;;;18.75;14.75;;;;;;;9.60;70.02;101478.69;5084428;28;20067;-71
2021/12/21 05:36:54;;;;;;;21.38;15.80;;;;;;;9.62;69.95;101484.03;5083438;28;20078;-71
2021/12/21 05:39:27;;;;;;;30.08;16.38;;;;;;;9.64;70.29;101482.34;5088377;28;20497;-71
2021/12/21 05:41:56;;;;;;;20.20;14.57;;;;;;;9.58;70.41;101490.97;5052092;28;20046;-71
2021/12/21 05:44:25;;;;;;;27.00;15.55;;;;;;;9.51;70.64;101481.97;5061743;28;20037;-71
2021/12/21 05:46:54;;;;;;;26.67;14.75;;;;;;;9.57;70.98;101491.81;5073638;28;20057;-71
2021/12/21 05:49:23;;;;;;;19.60;10.82;;;;;;;9.73;70.75;101498.41;5080347;28;20485;-71
2021/12/21 05:51:50;;;;;;;22.17;11.98;;;;;;;9.79;70.45;101498.59;5068584;28;20051;-71
2021/12/21 05:54:21;;;;;;;31.10;18.42;;;;;;;9.84;70.23;101499.66;5033745;28;20049;-71
2021/12/21 05:56:50;;;;;;;33.65;23.23;;;;;;;9.90;70.32;101505.13;5057550;28;20055;-71
2021/12/21 05:59:19;;;;;;;32.35;16.10;;;;;;;9.98;70.18;101507.13;5067861;28;20041;-71
2021/12/21 06:01:47;;;;;;;42.33;23.85;;;;;;;10.00;70.52;101512.44;5090163;28;20055;-71
2021/12/21 06:04:15;;;;;;;29.23;23.08;;;;;;;10.10;70.75;101501.34;5075619;28;20041;-71
2021/12/21 06:06:43;;;;;;;34.63;28.60;;;;;;;10.24;70.55;101515.81;5071275;28;20515;-71
2021/12/21 06:09:12;;;;;;;49.50;42.85;;;;;;;10.35;70.21;101519.69;5069496;28;20179;-70
2021/12/21 06:11:46;;;;;;;36.33;28.85;;;;;;;10.43;70.21;101526.94;5086579;28;20123;-71
2021/12/21 06:22:56;;;;;;;45.40;37.20;;;;;;;10.38;72.37;101526.78;5025166;28;20037;-71
2021/12/21 06:25:39;;;;;;;18.98;15.50;;;;;;;10.34;73.50;101532.84;5065802;28;20446;-71
2021/12/21 06:28:09;;;;;;;20.20;15.30;;;;;;;10.37;74.38;101533.81;5067237;28;20061;-71
2021/12/21 06:30:41;;;;;;;21.30;13.88;;;;;;;10.45;75.32;101538.41;5070508;28;20131;-71
2021/12/21 06:33:09;;;;;;;20.38;11.80;;;;;;;10.49;75.83;101538.56;5068616;28;20060;-71
2021/12/21 06:35:38;;;;;;;23.15;18.30;;;;;;;10.60;76.47;101541.50;5069487;28;20080;-71
2021/12/21 06:38:07;;;;;;;28.02;21.83;;;;;;;10.68;76.86;101543.50;5084623;28;20057;-71
2021/12/21 06:40:35;;;;;;;30.70;23.13;;;;;;;10.74;76.95;101550.69;5035065;28;20047;-71
2021/12/21 06:43:03;;;;;;;26.40;20.45;;;;;;;10.79;77.24;101549.06;5082936;28;20044;-71
2021/12/21 06:45:44;;;;;;;24.98;18.55;;;;;;;10.92;77.64;101548.53;5070689;28;20132;-71
2021/12/21 06:51:14;;;;;;;13.93;11.18;;;;;;;11.58;78.82;101549.38;5067121;28;20051;-71
2021/12/21 06:53:43;;;;;;;14.95;10.10;;;;;;;11.82;79.03;101559.66;5074641;28;20036;-71
2021/12/21 06:56:12;;;;;;;23.00;17.25;;;;;;;11.92;78.76;101552.84;5070005;28;20492;-71
2021/12/21 06:58:40;;;;;;;42.40;24.38;;;;;;;12.09;78.85;101545.25;5069237;28;20063;-71
2021/12/21 07:01:08;;;;;;;14.63;11.60;;;;;;;12.38;79.22;101544.13;5070012;28;20041;-71
2021/12/21 07:03:38;;;;;;;18.55;12.50;;;;;;;12.64;79.16;101548.22;5070326;28;20043;-71
2021/12/21 07:06:06;;;;;;;19.17;12.98;;;;;;;12.92;79.11;101538.16;5068180;28;20037;-71
2021/12/21 07:08:45;;;;;;;19.73;11.90;;;;;;;13.09;79.23;101548.19;5069242;28;20046;-70
2021/12/21 07:11:19;;;;;;;22.00;13.07;;;;;;;13.29;79.29;101551.22;5066762;28;20044;-71
2021/12/21 07:19:19;;;;;;;31.17;19.17;;;;;;;13.52;78.50;101556.91;5084192;28;20049;-71
2021/12/21 07:21:46;;;;;;;11.00;7.13;;;;;;;13.44;77.99;101566.50;5069960;28;20045;-74
2021/12/21 07:24:14;;;;;;;14.10;8.02;;;;;;;13.30;76.91;101560.97;5095504;28;20442;-71
2021/12/21 07:26:42;;;;;;;15.93;9.30;;;;;;;13.23;76.39;101564.38;5077623;28;20779;-72
2021/12/21 07:29:10;;;;;;;16.13;9.52;;;;;;;13.14;76.12;101561.53;5084855;28;20055;-71
2021/12/21 07:31:38;;;;;;;20.88;11.20;;;;;;;13.01;75.24;101556.84;5068370;28;20093;-71
2021/12/21 07:34:07;;;;;;;16.48;10.00;;;;;;;12.95;75.23;101560.28;5066841;28;20120;-71
2021/12/21 07:36:36;;;;;;;13.73;7.88;;;;;;;12.93;75.34;101556.69;5068034;28;20577;-71
2021/12/21 07:39:07;;;;;;;14.38;9.52;;;;;;;13.08;75.73;101556.09;5084315;28;20082;-71
2021/12/21 07:41:35;;;;;;;15.90;9.13;;;;;;;13.37;75.97;101564.59;5064958;28;20691;-71
2021/12/21 07:44:04;;;;;;;15.60;9.30;;;;;;;13.68;75.85;101568.66;5066072;28;20072;-71
2021/12/21 07:46:31;;;;;;;16.65;8.93;;;;;;;14.11;75.72;101571.06;5075255;28;20128;-71
2021/12/21 07:48:59;;;;;;;15.68;9.30;;;;;;;14.49;75.32;101573.41;5088628;28;20093;-71
2021/12/21 07:51:27;;;;;;;18.02;10.63;;;;;;;14.70;74.95;101576.31;5088345;28;20511;-71
2021/12/21 07:53:57;;;;;;;14.85;10.55;;;;;;;14.78;74.33;101563.97;5070104;28;20044;-71
2021/12/21 07:56:25;;;;;;;12.73;9.82;;;;;;;14.79;73.73;101573.75;5068127;28;20064;-71
2021/12/21 07:58:53;;;;;;;17.92;11.18;;;;;;;14.82;73.21;101572.91;5068824;28;20049;-71
2021/12/21 08:01:21;;;;;;;19.77;12.13;;;;;;;14.87;71.95;101564.09;5069262;28;20135;-71
2021/12/21 08:03:49;;;;;;;14.15;9.40;;;;;;;14.90;71.01;101569.44;5067851;28;20076;-71
2021/12/21 08:06:17;;;;;;;14.75;8.02;;;;;;;14.87;70.75;101572.06;5069078;28;20541;-72
2021/12/21 08:08:46;;;;;;;14.52;8.52;;;;;;;15.00;70.63;101571.34;5083112;28;20047;-71
2021/12/21 08:11:27;;;;;;;10.38;7.93;;;;;;;15.14;70.63;101566.16;5109403;28;20044;-71
2021/12/21 08:13:56;;;;;;;11.00;5.35;;;;;;;15.33;70.85;101569.88;5124393;27;20048;-72
2021/12/21 08:16:24;;;;;;;12.00;6.65;;;;;;;15.40;70.36;101574.38;5108306;28;20050;-69
2021/12/21 08:18:51;;;;;;;14.90;6.50;;;;;;;15.45;70.10;101568.22;5108381;28;20066;-69
2021/12/21 08:21:19;;;;;;;11.57;6.95;;;;;;;15.48;69.58;101573.56;5109427;28;20440;-69
2021/12/21 08:23:47;;;;;;;10.65;6.10;;;;;;;15.70;69.44;101574.66;5090969;28;20063;-70
2021/12/21 08:26:16;;;;;;;10.07;6.07;;;;;;;16.13;69.63;101572.28;5089794;28;20056;-68
2021/12/21 08:28:44;;;;;;;7.82;4.65;;;;;;;16.57;70.19;101570.75;5088508;28;20094;-69
2021/12/21 08:31:12;;;;;;;5.57;2.85;;;;;;;16.98;70.39;101578.91;5077613;28;20139;-68
2021/12/21 08:33:41;;;;;;;8.23;2.88;;;;;;;17.39;69.77;101578.94;5094184;28;20088;-69
2021/12/21 08:36:10;;;;;;;9.15;2.50;;;;;;;17.66;69.93;101586.13;5085630;28;20036;-69
2021/12/21 08:38:41;;;;;;;5.40;1.90;;;;;;;17.73;68.50;101587.00;5069784;28;20102;-69
2021/12/21 08:41:09;;;;;;;4.03;1.50;;;;;;;17.84;67.53;101582.56;5087328;28;20504;-69
2021/12/21 08:43:39;;;;;;;8.00;3.78;;;;;;;17.78;66.09;101585.25;5076932;28;20075;-69
2021/12/21 08:46:08;;;;;;;12.38;5.93;;;;;;;17.63;64.80;101577.22;5083720;28;20192;-69
2021/12/21 08:48:36;;;;;;;14.93;10.32;;;;;;;17.44;64.39;101574.53;5068210;28;20064;-69
2021/12/21 08:51:05;;;;;;;15.73;6.97;;;;;;;17.35;63.88;101571.84;5057229;28;20140;-68
2021/12/21 08:53:34;;;;;;;16.25;8.73;;;;;;;17.25;63.41;101575.41;5062595;28;20048;-68
2021/12/21 08:56:01;;;;;;;15.15;4.47;;;;;;;17.07;63.52;101576.25;5066112;28;20120;-69
2021/12/21 08:58:29;;;;;;;6.43;2.88;;;;;;;16.84;63.37;101585.09;5061972;28;20086;-70
2021/12/21 09:00:59;;;;;;;7.70;2.97;;;;;;;16.51;64.30;101596.47;5063539;28;20044;-70
2021/12/21 09:03:26;;;;;;;14.25;3.90;;;;;;;15.77;67.14;101600.44;5067445;28;20074;-71
2021/12/21 09:05:54;;;;;;;8.73;3.42;;;;;;;15.16;70.12;101612.28;5067677;28;20044;-71
2021/12/21 09:08:21;;;;;;;9.38;4.00;;;;;;;14.80;71.69;101625.16;5061589;28;20098;-71
2021/12/21 09:10:49;;;;;;;10.15;3.33;;;;;;;14.62;72.99;101623.16;5076173;28;20071;-71
2021/12/21 09:13:18;;;;;;;8.05;3.08;;;;;;;14.54;74.19;101622.16;5046918;28;20056;-70
2021/12/21 09:15:46;;;;;;;8.73;3.88;;;;;;;14.58;75.18;101613.34;5050237;28;20045;-70
2021/12/21 09:18:16;;;;;;;9.68;3.90;;;;;;;14.69;76.02;101617.06;5060244;28;20400;-70
2021/12/21 09:20:43;;;;;;;8.05;3.78;;;;;;;14.81;76.96;101625.19;5059738;28;20068;-70
2021/12/21 09:23:12;;;;;;;7.05;2.67;;;;;;;14.94;78.08;101621.78;5071686;28;20044;-71
2021/12/21 09:25:40;;;;;;;10.43;2.60;;;;;;;14.99;78.96;101624.50;5070293;28;20067;-71
2021/12/21 09:28:08;;;;;;;11.38;5.45;;;;;;;14.93;79.59;101627.97;5061911;28;20048;-70
2021/12/21 09:30:37;;;;;;;8.00;3.22;;;;;;;14.92;80.02;101622.63;5085376;28;20447;-70
2021/12/21 09:33:05;;;;;;;7.57;2.88;;;;;;;14.96;80.35;101625.38;5066769;28;20041;-70
2021/12/21 09:35:34;;;;;;;11.23;4.05;;;;;;;15.09;81.04;101626.41;5085662;28;20098;-70
2021/12/21 09:38:02;;;;;;;9.52;2.80;;;;;;;15.08;81.42;101616.63;5071383;28;20037;-70
2021/12/21 09:40:30;;;;;;;12.57;3.25;;;;;;;15.18;81.78;101615.84;5087728;28;20036;-71
2021/12/21 09:43:00;;;;;;;6.68;2.28;;;;;;;15.36;82.36;101625.78;5069767;28;20044;-70
2021/12/21 09:45:28;;;;;;;7.97;3.78;;;;;;;15.51;82.83;101616.16;5066742;28;20132;-70
2021/12/21 09:47:55;;;;;;;10.30;2.72;;;;;;;15.61;82.99;101613.63;5082485;28;20049;-71
2021/12/21 09:50:25;;;;;;;6.68;2.30;;;;;;;15.60;82.95;101618.06;5067911;28;20047;-71
2021/12/21 09:52:55;;;;;;;5.85;2.42;;;;;;;15.49;82.95;101620.56;5105136;28;20060;-71
2021/12/21 09:55:23;;;;;;;14.00;5.43;;;;;;;15.35;82.70;101627.56;5069321;28;20128;-71
2021/12/21 09:57:52;;;;;;;8.77;2.92;;;;;;;15.18;82.18;101620.25;5086943;28;20049;-71
2021/12/21 10:00:22;;;;;;;11.45;5.03;;;;;;;15.08;81.99;101608.66;5051787;28;20047;-72
2021/12/21 10:02:50;;;;;;;9.32;4.60;;;;;;;14.97;81.74;101605.84;5071222;28;20040;-71
2021/12/21 10:05:20;;;;;;;4.25;1.95;;;;;;;14.81;81.58;101597.69;5055745;28;20040;-72
2021/12/21 10:07:59;;;;;;;4.68;2.20;;;;;;;14.76;81.34;101597.66;5068751;28;20047;-71
2021/12/21 10:10:27;;;;;;;6.20;2.20;;;;;;;14.73;81.41;101601.16;5069715;28;20050;-71
2021/12/21 10:12:55;;;;;;;11.50;5.30;;;;;;;14.83;81.57;101599.50;5054251;28;20068;-71
2021/12/21 10:15:26;;;;;;;11.25;5.35;;;;;;;14.99;81.84;101600.56;5068511;28;20040;-71
2021/12/21 10:17:57;;;;;;;8.07;3.72;;;;;;;15.16;82.13;101597.19;5084957;28;20041;-71
2021/12/21 10:20:33;;;;;;;13.70;8.38;;;;;;;15.37;82.79;101587.63;5069723;28;20589;-71
2021/12/21 10:23:09;;;;;;;8.27;4.22;;;;;;;15.46;83.39;101585.06;5068576;28;20450;-74
2021/12/21 10:25:42;;;;;;;3.88;1.98;;;;;;;15.52;83.88;101586.06;5068155;28;20040;-71
2021/12/21 10:28:10;;;;;;;6.68;2.35;;;;;;;15.68;84.38;101575.53;5065548;28;20041;-71
2021/12/21 10:30:49;;;;;;;7.80;3.05;;;;;;;15.98;84.71;101575.75;5069106;28;20094;-70
2021/12/21 10:33:17;;;;;;;3.78;1.25;;;;;;;16.23;84.97;101574.13;5065952;28;20048;-71
2021/12/21 10:35:45;;;;;;;5.93;2.75;;;;;;;16.52;85.32;101566.28;5076993;28;20136;-70
2021/12/21 10:38:25;;;;;;;8.20;2.63;;;;;;;16.78;85.29;101569.97;5054854;28;20068;-70
2021/12/21 10:40:53;;;;;;;5.28;1.27;;;;;;;16.80;85.38;101562.88;5067484;28;20056;-71
2021/12/21 10:43:21;;;;;;;2.30;0.70;;;;;;;16.73;85.05;101567.28;5073114;28;20405;-71
2021/12/21 10:45:48;;;;;;;5.05;2.40;;;;;;;16.57;84.49;101562.75;5061333;28;20055;-72
2021/12/21 10:48:19;;;;;;;4.63;2.60;;;;;;;16.53;84.24;101552.06;5069760;28;20068;-71
2021/12/21 10:50:49;;;;;;;6.68;2.72;;;;;;;16.50;83.58;101546.72;5067478;28;20040;-72
2021/12/21 10:53:20;;;;;;;3.83;1.77;;;;;;;16.61;83.01;101551.22;5056649;28;20044;-71
2021/12/21 10:55:59;;;;;;;9.77;5.20;;;;;;;16.90;83.10;101556.66;5060907;28;20036;-71
2021/12/21 10:58:28;;;;;;;10.43;3.42;;;;;;;17.13;82.42;101559.38;5074656;28;20040;-71
2021/12/21 11:00:59;;;;;;;7.63;3.20;;;;;;;17.13;81.52;101551.38;5067478;28;20041;-71
2021/12/21 11:03:33;;;;;;;5.82;1.88;;;;;;;17.08;80.15;101542.44;5069009;28;20047;-71
2021/12/21 11:06:13;;;;;;;4.45;1.63;;;;;;;16.99;79.19;101542.47;5072267;28;20085;-71
2021/12/21 11:08:44;;;;;;;5.65;2.10;;;;;;;16.84;78.44;101553.09;5068950;28;20051;-71
2021/12/21 11:11:29;;;;;;;7.82;1.98;;;;;;;16.48;78.12;101570.69;5071793;28;20037;-72
2021/12/21 11:14:12;;;;;;;20.00;3.97;;;;;;;15.78;79.59;101580.94;5065891;28;20500;-77
2021/12/21 11:16:42;;;;;;;9.48;3.33;;;;;;;15.22;81.29;101592.84;5064034;28;20484;-76
2021/12/21 11:19:11;;;;;;;7.93;2.50;;;;;;;15.02;81.98;101585.53;5083925;28;20783;-76
2021/12/21 11:21:40;;;;;;;6.30;2.20;;;;;;;14.74;82.28;101592.31;5065047;28;20499;-75
2021/12/21 11:24:12;;;;;;;7.45;2.42;;;;;;;14.59;82.62;101593.88;5065715;28;20146;-75
2021/12/21 11:26:41;;;;;;;8.38;2.50;;;;;;;14.53;82.87;101593.81;5057486;28;20485;-75
2021/12/21 11:29:10;;;;;;;8.02;2.95;;;;;;;14.53;83.06;101591.16;5058183;28;20512;-76
2021/12/21 11:31:40;;;;;;;9.93;2.72;;;;;;;14.53;83.04;101596.47;5041704;28;20098;-76
2021/12/21 11:34:13;;;;;;;4.95;1.92;;;;;;;14.50;83.19;101593.78;5048258;28;20518;-75
2021/12/21 11:39:32;;;;;;;5.40;1.13;;;;;;;14.46;83.20;101597.25;5087537;28;20115;-75
2021/12/21 11:42:01;;;;;;;2.13;0.73;;;;;;;14.43;83.15;101586.59;5073725;28;20054;-75
2021/12/21 11:44:38;;;;;;;3.35;0.90;;;;;;;14.44;83.38;101593.69;5032321;28;20568;-74
2021/12/21 11:47:11;;;;;;;2.30;0.93;;;;;;;14.46;83.46;101592.84;5083657;28;20097;-74
2021/12/21 11:49:44;;;;;;;6.07;1.70;;;;;;;14.54;83.58;101590.28;5083210;28;20111;-73
2021/12/21 11:52:16;;;;;;;6.37;2.60;;;;;;;14.58;83.66;101597.41;5068497;28;20047;-73
2021/12/21 11:54:50;;;;;;;2.92;1.73;;;;;;;14.63;83.89;101595.72;5083665;28;20060;-73
2021/12/21 11:57:20;;;;;;;6.80;3.65;;;;;;;14.64;84.14;101593.06;5068888;28;20059;-74
2021/12/21 11:59:48;;;;;;;7.78;4.55;;;;;;;14.63;84.47;101593.06;5067941;28;20064;-74
2021/12/21 12:02:28;;;;;;;8.40;6.10;;;;;;;14.62;84.56;101588.63;5050140;28;20072;-73
2021/12/21 12:04:56;;;;;;;3.35;2.17;;;;;;;14.59;84.92;101586.81;5054553;28;20061;-73
2021/12/21 12:07:24;;;;;;;7.43;2.97;;;;;;;14.61;85.27;101590.38;5084492;28;20040;-72
2021/12/21 12:10:08;;;;;;;6.50;2.03;;;;;;;14.73;85.76;101579.00;5068294;28;20041;-72
2021/12/21 12:12:36;;;;;;;23.80;12.90;;;;;;;14.69;86.39;101579.84;5067703;28;20043;-72
2021/12/21 12:15:07;;;;;;;17.70;9.90;;;;;;;14.66;86.71;101583.34;5069998;28;20273;-72